createdAt,value
2022-09-27T00:00:33.933Z,6.75
2022-09-27T00:03:00.755Z,6.20
2022-09-27T00:05:27.587Z,6.60
2022-09-27T00:07:54.681Z,6.62
2022-09-27T00:10:21.353Z,6.90
2022-09-27T00:12:48.508Z,5.60
2022-09-27T00:15:15.330Z,6.18
2022-09-27T00:17:42.294Z,5.15
2022-09-27T00:20:10.157Z,6.00
2022-09-27T00:22:37.452Z,5.37
2022-09-27T00:25:07.438Z,6.05
2022-09-27T00:27:34.182Z,6.07
2022-09-27T00:30:00.892Z,6.28
2022-09-27T00:32:27.610Z,5.65
2022-09-27T00:34:54.460Z,6.00
2022-09-27T00:37:21.404Z,6.00
2022-09-27T00:39:48.118Z,5.45
2022-09-27T00:42:15.362Z,5.50
2022-09-27T00:44:41.961Z,5.25
2022-09-27T00:47:22.742Z,5.53
2022-09-27T00:50:11.602Z,5.57
2022-09-27T00:53:23.677Z,5.35
2022-09-27T00:55:57.493Z,3.17
2022-09-27T00:58:30.556Z,3.92
2022-09-27T01:01:01.578Z,4.78
2022-09-27T01:03:52.768Z,5.93
2022-09-27T01:06:21.351Z,5.55
2022-09-27T01:08:48.685Z,5.72
2022-09-27T01:11:37.135Z,7.40
2022-09-27T01:14:26.620Z,6.80
2022-09-27T01:17:25.466Z,6.95
2022-09-27T01:20:10.452Z,7.53
2022-09-27T01:22:44.425Z,7.90
2022-09-27T01:26:09.181Z,8.35
2022-09-27T01:28:56.289Z,7.95
2022-09-27T01:31:31.755Z,8.20
2022-09-27T01:34:12.246Z,8.32
2022-09-27T01:36:47.989Z,7.57
2022-09-27T01:39:29.452Z,8.18
2022-09-27T01:42:17.388Z,6.95
2022-09-27T01:44:58.429Z,8.07
2022-09-27T01:47:32.144Z,9.05
2022-09-27T01:50:28.159Z,9.23
2022-09-27T01:53:01.152Z,10.32
2022-09-27T01:55:32.766Z,10.02
2022-09-27T01:58:06.929Z,12.40
2022-09-27T02:00:36.201Z,8.75
2022-09-27T02:03:36.059Z,10.60
